Pineville, Minnesota
Current Conditions -  °F | °C
As of 8:31 AM on Friday 28 Nov 2014 (Local Time) from KEVM Reporting Station
Light Snow Light Snow  
Wind Chill: 10°   Ceiling: 700
Heat Index: 10°   Visibility: 1.7mi
Dew Point:   Wind: 3mph
Humidity: 79%   Direction: 90°E
Pressure: 30.02"   Gusts: NA
Location:  47.4622°N, 92.1946°W
Report Text: KEVM 281431Z AUTO 09003KT 1 3/4SM -SN OVC007 M12/M15 A3002 RMK AO2
Loading
Personal Weather Stations






























Interactive Weather Map New forecast layout! Learn more

10-Day Weather Forecast

Advertisements
Track Severe Weather on mobile